Weather at Lund Airport [CLOSED]

Public forecast

Using degrees Celsius for public forecast. Weather courtesy of forecast.io.

Closest aviation weather report (METAR) to Lund Airport

Closest report is Malmö Sturup Airport, 10.5 nm (19.5 km) SSE. Retrieved 2021/10/25 07:20 UTC (21 minutes ago):

ESMS 250720Z 20004KT 9999 SCT045 05/04 Q1017

Closest aviation forecast (TAF) to Lund Airport

Closest forecast is Malmö Sturup Airport, 10.5 nm (19.5 km) SSE. Retrieved 2021/10/25 06:00 UTC (2 hours ago):

TAF ESMS 250506Z 2506/2606 19008KT 9999 FEW045 BECMG 2520/2523 4000 -RADZ BKN008 TEMPO 2523/2606 2000 BR BKN004